Time;durP1;ratioP1;P1;durP2;ratioP2;P2;SDS_P1;SDS_P2;PMS_P1;PMS_P2;Temp;Humidity;BMP_temperature;BMP_pressure;BME280_temperature;BME280_humidity;BME280_pressure;Samples;Min_cycle;Max_cycle;Signal;HPM_P1;HPM_P2
2022/01/30 00:01:28;;;;;;;2.17;1.15;;;;;;;;;;5037759;28;20040;-78
2022/01/30 00:03:54;;;;;;;1.85;1.02;;;;;;;;;;5038781;28;20037;-77
2022/01/30 00:06:20;;;;;;;1.00;0.65;;;;;;;;;;5039923;28;20049;-77
2022/01/30 00:08:48;;;;;;;0.98;0.60;;;;;;;;;;5037167;28;21003;-77
2022/01/30 00:11:19;;;;;;;1.23;0.63;;;;;;;;;;5036090;28;20026;-78
2022/01/30 00:13:45;;;;;;;0.98;0.82;;;;;;;;;;5037225;28;20036;-77
2022/01/30 00:16:14;;;;;;;1.08;0.50;;;;;;;;;;5038905;28;20060;-77
2022/01/30 00:23:46;;;;;;;2.90;0.90;;;;;;;;;;5044965;28;20037;-77
2022/01/30 00:26:14;;;;;;;0.57;0.43;;;;;;;;;;5038843;28;20028;-77
2022/01/30 00:28:41;;;;;;;0.88;0.80;;;;;;;;;;5036450;28;20068;-77
2022/01/30 00:31:07;;;;;;;1.00;0.85;;;;;;;;;;5034109;28;20029;-77
2022/01/30 00:33:33;;;;;;;0.98;0.68;;;;;;;;;;5035709;28;20041;-77
2022/01/30 00:35:59;;;;;;;1.60;0.65;;;;;;;;;;5037031;28;20108;-77
2022/01/30 00:38:26;;;;;;;1.70;0.75;;;;;;;;;;5032067;28;20051;-77
2022/01/30 00:40:52;;;;;;;1.20;0.70;;;;;;;;;;5035778;28;20552;-77
2022/01/30 00:43:19;;;;;;;1.17;0.70;;;;;;;;;;5034772;28;20099;-77
2022/01/30 00:45:46;;;;;;;1.00;0.68;;;;;;;;;;5035404;28;20481;-77
2022/01/30 00:48:12;;;;;;;0.50;0.50;;;;;;;;;;5037725;28;20044;-77
2022/01/30 00:50:38;;;;;;;1.38;0.60;;;;;;;;;;5037030;28;20041;-77
2022/01/30 00:53:05;;;;;;;1.58;0.50;;;;;;;;;;5036454;28;20027;-78
2022/01/30 00:55:31;;;;;;;1.05;0.73;;;;;;;;;;5036635;28;20116;-77
2022/01/30 00:57:58;;;;;;;0.85;0.50;;;;;;;;;;5036374;28;20025;-76
2022/01/30 01:00:25;;;;;;;0.80;0.60;;;;;;;;;;5035991;28;20044;-77
2022/01/30 01:02:51;;;;;;;0.73;0.50;;;;;;;;;;5039819;28;20037;-77
2022/01/30 01:05:18;;;;;;;1.00;0.40;;;;;;;;;;5043179;28;20122;-76
2022/01/30 01:07:47;;;;;;;1.08;0.60;;;;;;;;;;5040526;28;20052;-77
2022/01/30 01:10:28;;;;;;;2.13;0.95;;;;;;;;;;5036639;28;20389;-77
2022/01/30 01:23:37;;;;;;;1.48;1.05;;;;;;;;;;5033402;28;20342;-77
2022/01/30 01:26:02;;;;;;;1.65;1.00;;;;;;;;;;5041928;28;20760;-76
2022/01/30 01:28:29;;;;;;;1.88;1.13;;;;;;;;;;5040355;28;20079;-77
2022/01/30 01:30:55;;;;;;;2.63;1.10;;;;;;;;;;5041258;28;20056;-78
2022/01/30 01:33:24;;;;;;;1.13;0.85;;;;;;;;;;5038225;28;20128;-77
2022/01/30 01:35:50;;;;;;;0.85;0.50;;;;;;;;;;5043450;28;20036;-77
2022/01/30 01:38:16;;;;;;;1.00;0.50;;;;;;;;;;5038374;28;20025;-77
2022/01/30 01:40:51;;;;;;;2.40;0.93;;;;;;;;;;5041462;28;20025;-76
2022/01/30 01:43:21;;;;;;;1.02;0.60;;;;;;;;;;5042481;28;20052;-77
2022/01/30 01:45:50;;;;;;;2.05;0.63;;;;;;;;;;5041647;28;20660;-77
2022/01/30 01:48:16;;;;;;;1.42;0.80;;;;;;;;;;5037640;28;20483;-77
2022/01/30 01:50:53;;;;;;;0.70;0.50;;;;;;;;;;5042027;28;20041;-77
2022/01/30 01:53:25;;;;;;;1.02;0.65;;;;;;;;;;5039097;28;20673;-77
2022/01/30 01:55:51;;;;;;;3.28;1.02;;;;;;;;;;5040570;28;20033;-77
2022/01/30 01:58:17;;;;;;;1.10;0.63;;;;;;;;;;5040953;28;20131;-77
2022/01/30 02:00:44;;;;;;;2.63;0.60;;;;;;;;;;5039498;28;20029;-77
2022/01/30 02:03:10;;;;;;;2.83;1.58;;;;;;;;;;5041199;28;20130;-77
2022/01/30 02:05:39;;;;;;;1.38;0.73;;;;;;;;;;5042626;28;20037;-77
2022/01/30 02:08:28;;;;;;;1.17;0.40;;;;;;;;;;5040424;28;20052;-78
2022/01/30 02:24:22;;;;;;;1.95;0.85;;;;;;;;;;5044778;28;20423;-77
2022/01/30 02:26:48;;;;;;;2.90;0.98;;;;;;;;;;5037962;28;20047;-77
2022/01/30 02:29:14;;;;;;;1.52;0.98;;;;;;;;;;5041568;28;20231;-77
2022/01/30 02:31:42;;;;;;;2.10;1.02;;;;;;;;;;5040162;28;20159;-76
2022/01/30 02:34:08;;;;;;;3.25;1.80;;;;;;;;;;5037649;28;20116;-77
2022/01/30 02:36:50;;;;;;;2.95;1.33;;;;;;;;;;5038272;28;20021;-77
2022/01/30 02:39:17;;;;;;;1.58;1.10;;;;;;;;;;5037991;28;20025;-77
2022/01/30 02:41:43;;;;;;;1.60;0.90;;;;;;;;;;5036265;28;20029;-77
2022/01/30 02:46:45;;;;;;;3.58;1.33;;;;;;;;;;5035710;28;20043;-77
2022/01/30 02:49:28;;;;;;;1.70;0.75;;;;;;;;;;5037241;28;20041;-77
2022/01/30 02:54:21;;;;;;;1.75;0.98;;;;;;;;;;5037340;28;20037;-78
2022/01/30 02:56:47;;;;;;;1.38;1.08;;;;;;;;;;5039822;28;20074;-76
2022/01/30 02:59:13;;;;;;;13.55;6.43;;;;;;;;;;5035943;28;20029;-77
2022/01/30 03:01:39;;;;;;;1.75;1.38;;;;;;;;;;5035269;28;20306;-77
2022/01/30 03:04:05;;;;;;;2.22;1.23;;;;;;;;;;5038421;28;20029;-77
2022/01/30 03:06:32;;;;;;;7.53;1.33;;;;;;;;;;5035325;28;20067;-77
2022/01/30 03:08:58;;;;;;;5.65;1.80;;;;;;;;;;5037123;28;20503;-77
2022/01/30 03:11:24;;;;;;;2.85;1.40;;;;;;;;;;5038492;28;20044;-77
2022/01/30 03:13:50;;;;;;;2.40;1.02;;;;;;;;;;5039359;28;20059;-77
2022/01/30 03:16:16;;;;;;;4.18;1.05;;;;;;;;;;5040185;28;21973;-77
2022/01/30 03:18:43;;;;;;;2.35;0.95;;;;;;;;;;5037208;28;20157;-77
2022/01/30 03:21:09;;;;;;;6.82;1.00;;;;;;;;;;5036139;28;20043;-77
2022/01/30 03:23:38;;;;;;;4.85;1.42;;;;;;;;;;5034296;28;20041;-77
2022/01/30 03:26:05;;;;;;;3.15;1.20;;;;;;;;;;5036355;28;20097;-78
2022/01/30 03:28:32;;;;;;;5.28;1.40;;;;;;;;;;5039548;28;20334;-77
2022/01/30 03:31:05;;;;;;;4.60;1.63;;;;;;;;;;5035808;28;20032;-77
2022/01/30 03:33:31;;;;;;;;;;;;;;;;;;5037351;28;20030;-76
2022/01/30 03:35:57;;;;;;;2.22;1.08;;;;;;;;;;5048399;28;19913;-77
2022/01/30 03:38:23;;;;;;;3.08;1.55;;;;;;;;;;5047374;28;20028;-77
2022/01/30 03:40:50;;;;;;;4.63;1.58;;;;;;;;;;5042908;28;20119;-77
2022/01/30 03:43:16;;;;;;;3.47;1.60;;;;;;;;;;5035774;28;20036;-77
2022/01/30 03:45:43;;;;;;;2.72;1.02;;;;;;;;;;5030487;28;20052;-77
2022/01/30 03:48:09;;;;;;;1.23;0.90;;;;;;;;;;5037001;28;20110;-78
2022/01/30 03:50:35;;;;;;;2.97;1.10;;;;;;;;;;5036557;28;20123;-77
2022/01/30 03:53:01;;;;;;;1.90;1.23;;;;;;;;;;5036822;28;20033;-77
2022/01/30 03:55:27;;;;;;;2.80;1.40;;;;;;;;;;5041246;28;20064;-77
2022/01/30 03:57:53;;;;;;;6.40;1.60;;;;;;;;;;5040196;28;20262;-77
2022/01/30 04:00:19;;;;;;;3.00;1.40;;;;;;;;;;5034278;28;20047;-77
2022/01/30 04:02:46;;;;;;;3.38;1.73;;;;;;;;;;5033150;28;20029;-78
2022/01/30 04:05:12;;;;;;;2.58;1.60;;;;;;;;;;5035471;28;20040;-77
2022/01/30 04:07:38;;;;;;;5.43;1.55;;;;;;;;;;5037430;28;20034;-77
2022/01/30 04:10:05;;;;;;;5.78;2.20;;;;;;;;;;5034220;28;20136;-77
2022/01/30 04:12:31;;;;;;;2.83;1.17;;;;;;;;;;5035299;28;20040;-76
2022/01/30 04:14:57;;;;;;;2.53;1.00;;;;;;;;;;5035436;28;20055;-77
2022/01/30 04:17:24;;;;;;;5.25;1.25;;;;;;;;;;5028136;28;20033;-77
2022/01/30 04:19:50;;;;;;;8.70;2.20;;;;;;;;;;5038514;28;20033;-77
2022/01/30 04:22:16;;;;;;;2.38;1.08;;;;;;;;;;5036184;28;20033;-77
2022/01/30 04:24:42;;;;;;;2.92;1.33;;;;;;;;;;5032059;28;20029;-78
2022/01/30 04:27:08;;;;;;;5.15;1.55;;;;;;;;;;5034674;28;20119;-76
2022/01/30 04:29:34;;;;;;;2.15;0.98;;;;;;;;;;5032839;28;20049;-77
2022/01/30 04:32:02;;;;;;;3.83;1.50;;;;;;;;;;5029880;28;20017;-77
2022/01/30 04:34:29;;;;;;;2.55;1.50;;;;;;;;;;5040095;28;20036;-77
2022/01/30 04:37:03;;;;;;;3.72;1.13;;;;;;;;;;5040620;28;20082;-77
2022/01/30 04:40:09;;;;;;;3.28;2.10;;;;;;;;;;5031429;28;20052;-76
2022/01/30 05:01:15;;;;;;;3.55;1.40;;;;;;;;;;5021253;28;20153;-77
2022/01/30 05:04:17;;;;;;;7.20;0.93;;;;;;;;;;5040597;28;20093;-77
2022/01/30 05:07:25;;;;;;;6.53;1.25;;;;;;;;;;5037869;28;20040;-77
2022/01/30 05:09:38;;;;;;;1.98;1.23;;;;;;;;;;5035521;28;20099;-77
2022/01/30 05:12:04;;;;;;;1.45;1.17;;;;;;;;;;5034855;28;20057;-76
2022/01/30 05:14:34;;;;;;;9.57;1.48;;;;;;;;;;5037903;28;20029;-77
2022/01/30 05:17:00;;;;;;;1.20;0.85;;;;;;;;;;5029743;28;20033;-77
2022/01/30 05:19:27;;;;;;;4.22;1.13;;;;;;;;;;5039078;28;20118;-77
2022/01/30 05:21:53;;;;;;;2.83;0.80;;;;;;;;;;5040812;28;20029;-77
2022/01/30 05:24:19;;;;;;;11.23;1.60;;;;;;;;;;5039980;28;20028;-78
2022/01/30 05:26:46;;;;;;;2.80;1.17;;;;;;;;;;5037807;28;20056;-77
2022/01/30 05:29:12;;;;;;;3.03;0.93;;;;;;;;;;5039666;28;20239;-77
2022/01/30 05:31:39;;;;;;;1.58;0.93;;;;;;;;;;5035922;28;20036;-77
2022/01/30 05:34:05;;;;;;;6.78;1.65;;;;;;;;;;5039411;28;20036;-76
2022/01/30 05:36:31;;;;;;;1.20;0.95;;;;;;;;;;5037823;28;20028;-77
2022/01/30 05:38:58;;;;;;;1.90;0.73;;;;;;;;;;5035141;28;20181;-77
2022/01/30 05:41:24;;;;;;;1.13;0.82;;;;;;;;;;5037488;28;20036;-77
2022/01/30 05:43:54;;;;;;;7.28;1.30;;;5.90;99.90;;;;;;5036731;28;20065;-77
2022/01/30 05:46:31;;;;;;;4.35;1.30;;;;;;;;;;5034192;28;20036;-77
2022/01/30 05:48:58;;;;;;;3.10;1.33;;;;;;;;;;5039533;28;20512;-77
2022/01/30 05:51:23;;;;;;;5.78;2.03;;;;;;;;;;5036350;28;20107;-76
2022/01/30 05:53:49;;;;;;;1.15;0.65;;;;;;;;;;5033993;28;20048;-77
2022/01/30 05:56:15;;;;;;;8.57;1.00;;;;;;;;;;5034809;28;20036;-77
2022/01/30 05:58:41;;;;;;;4.90;1.10;;;;;;;;;;5040236;28;20033;-77
2022/01/30 06:01:07;;;;;;;5.57;0.85;;;;;;;;;;5032431;28;20037;-77
2022/01/30 06:03:33;;;;;;;2.90;1.25;;;;;;;;;;5036901;28;20068;-77
2022/01/30 06:05:59;;;;;;;3.17;1.45;;;;;;;;;;5037183;28;20033;-77
2022/01/30 06:08:43;;;;;;;2.08;1.50;;;;;;;;;;5039316;28;20025;-77
2022/01/30 06:11:10;;;;;;;1.80;1.00;;;;;;;;;;5030014;28;20559;-77
2022/01/30 06:13:36;;;;;;;5.65;2.95;;;;;;;;;;5036325;28;20024;-77
2022/01/30 06:16:02;;;;;;;12.38;0.93;;;;;;;;;;5031299;28;20036;-76
2022/01/30 06:18:28;;;;;;;10.40;1.85;;;;;;;;;;5037805;28;20488;-77
2022/01/30 06:20:54;;;;;;;6.40;1.70;;;;;;;;;;5036963;28;20162;-76
2022/01/30 06:23:22;;;;;;;4.07;0.80;;;;;;;;;;5033531;28;20029;-77
2022/01/30 06:25:48;;;;;;;1.77;0.95;;;;;;;;;;5037646;28;20087;-77
2022/01/30 06:28:15;;;;;;;5.07;2.53;;;;;;;;;;5035351;28;20029;-76
2022/01/30 06:30:41;;;;;;;3.50;0.73;;;;;;;;;;5036653;28;20090;-77
2022/01/30 06:33:07;;;;;;;6.72;1.00;;;;;;;;;;5036210;28;20043;-77
2022/01/30 06:35:33;;;;;;;8.30;0.95;;;;;;;;;;5036873;28;20657;-77
2022/01/30 06:37:59;;;;;;;6.50;1.75;;;;;;;;;;5038302;28;20017;-78
2022/01/30 06:40:25;;;;;;;2.97;0.65;;;;;;;;;;5039546;28;20108;-76
2022/01/30 06:42:51;;;;;;;6.50;1.58;;;;;;;;;;5036784;28;20029;-77
2022/01/30 06:45:19;;;;;;;3.28;0.77;;;;;;;;;;5032952;28;20943;-76
2022/01/30 06:47:45;;;;;;;6.80;0.77;;;;;;;;;;5039328;28;20029;-77
2022/01/30 06:50:12;;;;;;;6.45;1.63;;;;;;;;;;5030238;28;20037;-77
2022/01/30 06:52:39;;;;;;;4.03;0.75;;;;;;;;;;5028577;28;20059;-78
2022/01/30 06:55:06;;;;;;;3.40;1.38;;;;;;;;;;5028456;28;20029;-78
2022/01/30 06:57:33;;;;;;;2.83;0.80;;;;;;;;;;5025751;28;20124;-78
2022/01/30 06:59:59;;;;;;;1.10;0.75;;;;;;;;;;5036098;28;20033;-77
2022/01/30 07:02:25;;;;;;;4.38;1.33;;;;;;;;;;5038800;28;20025;-76
2022/01/30 07:04:51;;;;;;;5.82;1.95;;;;;;;;;;5034491;28;20041;-78
2022/01/30 07:07:17;;;;;;;5.03;0.70;;;;;;;;;;5034212;28;20147;-77
2022/01/30 07:09:43;;;;;;;3.13;0.90;;;;;;;;;;5033932;28;20104;-77
2022/01/30 07:12:10;;;;;;;7.30;1.02;;;;;;;;;;5023876;28;20083;-77
2022/01/30 07:14:35;;;;;;;9.52;1.55;;;;;;;;;;5026416;28;20496;-77
2022/01/30 07:17:01;;;;;;;2.75;0.80;;;;;;;;;;5028982;28;20107;-77
2022/01/30 07:19:27;;;;;;;12.05;1.02;;;;;;;;;;5041021;28;20048;-77
2022/01/30 07:21:53;;;;;;;5.18;1.85;;;;;;;;;;5037330;28;20025;-77
2022/01/30 07:24:20;;;;;;;2.42;1.65;;;;;;;;;;5036250;28;21152;-78
2022/01/30 07:26:45;;;;;;;5.40;1.13;;;;;;;;;;5039686;28;20103;-78
2022/01/30 07:29:12;;;;;;;7.82;1.58;;;;;;;;;;5038034;28;20144;-77
2022/01/30 07:31:38;;;;;;;3.97;0.93;;;;;;;;;;5026233;28;20576;-77
2022/01/30 07:34:04;;;;;;;6.60;1.15;;;;;;;;;;5032865;28;20927;-77
2022/01/30 07:36:32;;;;;;;5.13;1.60;;;;;;;;;;5029794;28;20033;-77
2022/01/30 07:38:58;;;;;;;10.30;2.13;;;;;;;;;;5022355;28;20106;-77
2022/01/30 07:41:24;;;;;;;7.07;2.60;;;;;;;;;;5027802;28;20114;-77
2022/01/30 07:43:50;;;;;;;2.95;0.95;;;;;;;;;;5036665;28;20037;-78
2022/01/30 07:46:16;;;;;;;8.30;2.13;;;;;;;;;;5033196;28;20060;-78
2022/01/30 07:48:42;;;;;;;5.28;1.13;;;;;;;;;;5040136;28;20075;-78
2022/01/30 07:51:08;;;;;;;10.90;1.20;;;;;;;;;;5038192;28;20021;-78
2022/01/30 07:53:35;;;;;;;6.78;1.65;;;;;;;;;;5033644;28;20036;-78
2022/01/30 07:56:01;;;;;;;6.07;1.50;;;;;;;;;;5040863;28;20583;-77
2022/01/30 07:58:27;;;;;;;4.43;1.33;;;;;;;;;;5038619;28;20021;-77
2022/01/30 08:00:53;;;;;;;8.95;0.60;;;;;;;;;;5034026;28;20033;-78
2022/01/30 08:03:19;;;;;;;1.85;0.75;;;;;;;;;;5030010;28;20021;-78
2022/01/30 08:05:45;;;;;;;7.63;0.75;;;;;;;;;;5036348;28;20033;-79
2022/01/30 08:08:11;;;;;;;6.15;1.10;;;;;;;;;;5033481;28;20090;-78
2022/01/30 08:10:37;;;;;;;3.85;0.98;;;;;;;;;;5040394;28;20159;-79
2022/01/30 08:13:03;;;;;;;10.20;0.80;;;;;;;;;;5044183;28;20036;-78
2022/01/30 08:15:29;;;;;;;5.47;0.85;;;;;;;;;;5036894;28;20110;-79
2022/01/30 08:17:55;;;;;;;1.83;0.70;;;;;;;;;;5038527;28;20479;-79
2022/01/30 08:20:25;;;;;;;3.90;1.00;;;;;;;;;;5048525;28;20575;-78
2022/01/30 08:22:52;;;;;;;24.02;1.35;;;;;;;;;;5041030;28;20043;-80
2022/01/30 08:25:19;;;;;;;13.00;1.98;;;;;;;;;;5048400;28;20040;-79
2022/01/30 08:27:45;;;;;;;1.80;0.95;;;;;;;;;;5039497;28;20847;-80
2022/01/30 08:30:12;;;;;;;14.23;1.05;;;;;;;;;;5042340;28;20048;-80
2022/01/30 08:32:39;;;;;;;2.92;0.73;;;;;;;;;;5042050;28;20029;-80
2022/01/30 08:35:05;;;;;;;3.35;0.80;;;;;;;;;;5049358;28;20037;-80
2022/01/30 08:37:31;;;;;;;2.85;0.85;;;;;;;;;;5044056;28;20037;-80
2022/01/30 08:39:57;;;;;;;6.65;0.70;;;;;;;;;;5039525;28;20040;-79
2022/01/30 08:42:23;;;;;;;5.88;0.98;;;;;;;;;;5038688;28;20116;-79
2022/01/30 08:44:48;;;;;;;3.15;0.60;;;;;;;;;;5038908;28;20025;-80
2022/01/30 08:47:14;;;;;;;6.97;1.40;;;;;;;;;;5033570;28;20119;-79
2022/01/30 08:49:40;;;;;;;10.32;3.33;;;;;;;;;;5033278;28;20041;-80
2022/01/30 08:52:06;;;;;;;5.55;0.98;;;;;;;;;;5034452;28;20199;-80
2022/01/30 08:54:32;;;;;;;5.07;1.00;;;;;;;;;;5047152;28;20536;-79
2022/01/30 08:56:58;;;;;;;8.60;1.85;;;;;;;;;;5041107;28;20063;-79
2022/01/30 08:59:24;;;;;;;9.32;0.85;;;;;;;;;;5032624;28;20028;-78
2022/01/30 09:01:50;;;;;;;3.35;0.75;;;;;;;;;;5030651;28;20025;-78
2022/01/30 09:04:17;;;;;;;5.57;1.20;;;;;;;;;;5040220;28;20040;-78
2022/01/30 09:06:43;;;;;;;2.85;1.17;;;;;;;;;;5037261;28;20020;-77
2022/01/30 09:09:09;;;;;;;9.65;1.63;;;;;;;;;;5038023;28;20521;-78
2022/01/30 09:11:36;;;;;;;5.55;0.63;;;;;;;;;;5037838;28;20469;-78
2022/01/30 09:14:03;;;;;;;2.75;1.10;;;;;;;;;;5040097;28;20698;-78
2022/01/30 09:16:29;;;;;;;6.90;1.00;;;;;;;;;;5038622;28;20021;-78
2022/01/30 09:18:56;;;;;;;3.85;0.95;;;;;;;;;;5046406;28;20033;-79
2022/01/30 09:21:22;;;;;;;0.45;0.40;;;;;;;;;;5048627;28;20029;-78
2022/01/30 09:23:48;;;;;;;2.72;0.90;;;;;;;;;;5048506;28;20041;-79
2022/01/30 09:26:14;;;;;;;1.73;0.80;;;;;;;;;;5045565;28;20037;-78
2022/01/30 09:28:40;;;;;;;2.60;0.70;;;;;;;;;;5050446;28;20119;-77
2022/01/30 09:31:06;;;;;;;1.15;0.85;;;;;;;;;;5045257;28;20029;-78
2022/01/30 09:33:32;;;;;;;12.63;0.70;;;;;;;;;;5045367;28;20040;-77
2022/01/30 09:35:58;;;;;;;2.22;1.02;;;;;;;;;;5047499;28;20057;-78
2022/01/30 09:38:24;;;;;;;6.43;1.02;;;;;;;;;;5048545;28;20057;-78
2022/01/30 09:40:54;;;;;;;7.15;1.35;;;;;;;;;;5044164;28;20032;-78
2022/01/30 09:43:21;;;;;;;12.52;0.80;;;;;;;;;;5044416;28;20067;-78
2022/01/30 09:45:47;;;;;;;3.88;1.35;;;;;;;;;;5042977;28;20117;-78
2022/01/30 09:48:14;;;;;;;14.07;0.93;;;;;;;;;;5043054;28;20091;-78
2022/01/30 09:50:41;;;;;;;3.63;1.50;;;;;;;;;;5044676;28;21216;-77
2022/01/30 09:53:07;;;;;;;10.95;1.00;;;;;;;;;;5043733;28;20021;-77
2022/01/30 09:55:33;;;;;;;12.57;0.77;;;;;;;;;;5041883;28;20091;-78
2022/01/30 09:57:59;;;;;;;8.65;1.13;;;6.80;99.90;;;;;;5052583;28;20033;-79
2022/01/30 10:00:25;;;;;;;11.23;1.25;;;;;;;;;;5040353;28;20037;-78
2022/01/30 10:02:51;;;;;;;5.43;0.68;;;;;;;;;;5038531;28;20144;-78
2022/01/30 10:05:17;;;;;;;1.42;0.52;;;;;;;;;;5047805;28;20106;-78
2022/01/30 10:07:46;;;;;;;2.10;0.60;;;;;;;;;;5042408;28;20057;-78
2022/01/30 10:10:16;;;;;;;6.85;1.13;;;;;;;;;;5044498;28;20944;-78
2022/01/30 10:13:02;;;;;;;9.63;1.02;;;;;;;;;;5045273;28;20021;-78
2022/01/30 10:15:28;;;;;;;19.95;1.20;;;;;;;;;;5044923;28;20332;-78
2022/01/30 10:17:54;;;;;;;3.10;0.65;;;;;;;;;;5045107;28;20048;-78
2022/01/30 10:20:25;;;;;;;4.28;1.40;;;;;;;;;;5042254;28;20521;-78
2022/01/30 10:22:56;;;;;;;1.42;0.47;;;;;;;;;;5044936;28;20036;-78
2022/01/30 10:25:22;;;;;;;2.60;0.65;;;;;;;;;;5042028;28;20035;-78
2022/01/30 10:27:48;;;;;;;8.73;1.00;;;;;;;;;;5043884;28;20097;-79
2022/01/30 10:30:19;;;;;;;7.05;0.43;;;;;;;;;;5037956;28;20393;-78
2022/01/30 10:32:54;;;;;;;2.33;0.60;;;;;;;;;;5035533;28;20938;-78
2022/01/30 10:35:20;;;;;;;1.80;0.65;;;;;;;;;;5038925;28;20032;-79
2022/01/30 10:37:46;;;;;;;4.25;0.75;;;;;;;;;;5038390;28;20026;-78
2022/01/30 10:40:19;;;;;;;3.78;1.10;;;;;;;;;;5036956;28;20654;-78
2022/01/30 10:42:46;;;;;;;3.95;1.23;;;;;;;;;;5044757;28;20040;-79
2022/01/30 10:45:25;;;;;;;1.77;0.82;;;;;;;;;;5040466;28;20037;-79
2022/01/30 10:47:51;;;;;;;3.03;0.95;;;;;;;;;;5041428;28;20029;-78
2022/01/30 10:50:19;;;;;;;2.88;0.60;;;;;;;;;;5040539;28;20032;-79
2022/01/30 10:53:02;;;;;;;7.97;2.63;;;;;;;;;;5042576;28;20044;-78
2022/01/30 10:55:31;;;;;;;7.00;0.80;;;;;;;;;;5046209;28;20048;-78
2022/01/30 10:58:00;;;;;;;6.85;0.60;;;;;;;;;;5038323;28;20055;-79
2022/01/30 11:00:38;;;;;;;7.78;0.82;;;;;;;;;;5039747;28;20097;-78
2022/01/30 11:03:04;;;;;;;6.78;0.90;;;;;;;;;;5033220;28;20033;-77
2022/01/30 11:05:32;;;;;;;5.55;0.88;;;;;;;;;;5035521;28;20097;-78
2022/01/30 11:07:58;;;;;;;5.78;0.60;;;;;;;;;;5041335;28;20052;-77
2022/01/30 11:10:26;;;;;;;6.75;0.75;;;;;;;;;;5041777;28;20414;-78
2022/01/30 11:13:07;;;;;;;1.35;0.82;;;;;;;;;;5033681;28;20176;-78
2022/01/30 11:15:36;;;;;;;10.43;1.08;;;;;;;;;;5032873;28;20311;-78
2022/01/30 11:18:03;;;;;;;1.77;0.80;;;;;;;;;;5038827;28;20096;-80
2022/01/30 11:20:31;;;;;;;5.53;0.90;;;;;;;;;;5037816;28;20032;-79
2022/01/30 11:22:59;;;;;;;4.57;0.65;;;;;;;;;;5035912;28;20033;-77
2022/01/30 11:25:26;;;;;;;3.47;0.80;;;;;;;;;;5031324;28;20579;-78
2022/01/30 11:27:55;;;;;;;6.30;0.88;;;;;;;;;;5031813;28;20170;-78
2022/01/30 11:30:21;;;;;;;9.10;1.33;;;;;;;;;;5028818;28;20048;-78
2022/01/30 11:32:47;;;;;;;5.05;1.90;;;;;;;;;;5029095;28;20082;-78
2022/01/30 11:35:13;;;;;;;2.60;1.00;;;;;;;;;;5027871;28;20119;-78
2022/01/30 11:37:40;;;;;;;11.52;1.98;;;;;;;;;;5030728;28;20055;-78
2022/01/30 11:40:17;;;;;;;2.47;0.77;;;;;;;;;;5038113;28;20055;-77
2022/01/30 11:42:49;;;;;;;3.13;1.77;;;;;;;;;;5034182;28;20037;-77
2022/01/30 11:45:15;;;;;;;8.75;1.48;;;;;;;;;;5042750;28;20047;-77
2022/01/30 11:47:45;;;;;;;6.85;0.50;;;;;;;;;;5036342;28;20040;-78
2022/01/30 11:50:12;;;;;;;4.97;0.65;;;;;;;;;;5032599;28;20126;-78
2022/01/30 11:52:54;;;;;;;3.20;1.45;;;;;;;;;;5036127;28;20032;-78
2022/01/30 11:55:39;;;;;;;4.70;0.57;;;;;;;;;;5037324;28;20033;-79
2022/01/30 11:58:05;;;;;;;1.63;0.65;;;;;;;;;;5034919;28;20048;-78
2022/01/30 12:00:38;;;;;;;3.08;0.82;;;;;;;;;;5031041;28;20699;-79
2022/01/30 12:03:24;;;;;;;3.50;0.68;;;;;;;;;;5035680;28;20029;-78
2022/01/30 12:05:50;;;;;;;8.93;0.98;;;;;;;;;;5039313;28;20202;-78
2022/01/30 12:08:35;;;;;;;9.52;0.70;;;;;;;;;;5029897;28;20077;-78
2022/01/30 12:11:01;;;;;;;5.32;1.17;;;;;;;;;;5034687;28;20567;-78
2022/01/30 12:13:45;;;;;;;2.58;0.47;;;;;;;;;;5035696;28;20029;-78
2022/01/30 12:16:30;;;;;;;1.05;0.40;;;;;;;;;;5028670;28;20029;-78
2022/01/30 12:18:56;;;;;;;3.90;0.60;;;;;;;;;;5033780;28;20059;-78
2022/01/30 12:21:27;;;;;;;1.05;0.38;;;;;;;;;;5034662;28;20056;-78
2022/01/30 12:23:53;;;;;;;1.90;0.77;;;;;;;;;;5032336;28;20102;-79
2022/01/30 12:26:19;;;;;;;11.50;1.48;;;;;;;;;;5031348;28;20451;-78
2022/01/30 12:28:46;;;;;;;8.48;1.00;;;;;;;;;;5034970;28;20031;-78
2022/01/30 12:31:30;;;;;;;3.55;0.50;;;;;;;;;;5033466;28;20040;-79
2022/01/30 12:34:03;;;;;;;3.55;1.02;;;;;;;;;;5017454;28;20188;-77
2022/01/30 12:36:30;;;;;;;2.83;0.77;;;;;;;;;;5016454;28;20043;-79
2022/01/30 12:38:58;;;;;;;1.77;0.57;;;;;;;;;;5026063;28;20484;-76
2022/01/30 12:41:25;;;;;;;2.13;0.38;;;;;;;;;;5015635;28;20136;-78
2022/01/30 12:43:55;;;;;;;2.42;0.80;;;;;;;;;;5030182;28;20137;-78
2022/01/30 12:46:22;;;;;;;5.22;1.33;;;;;;;;;;5025410;28;20075;-78
2022/01/30 12:49:01;;;;;;;1.92;0.30;;;;;;;;;;5031282;28;20044;-78
2022/01/30 12:51:28;;;;;;;1.83;0.55;;;;;;;;;;5033917;28;20044;-78
2022/01/30 12:53:55;;;;;;;3.55;0.50;;;;;;;;;;5032826;28;20033;-79
2022/01/30 12:56:22;;;;;;;1.63;1.17;;;;;;;;;;5034188;28;20040;-77
2022/01/30 12:58:49;;;;;;;3.00;1.05;;;;;;;;;;5036976;28;20033;-79
2022/01/30 13:01:15;;;;;;;0.80;0.32;;;;;;;;;;5032195;28;20029;-78
2022/01/30 13:03:44;;;;;;;4.43;1.20;;;;;;;;;;5031227;28;20024;-78
2022/01/30 13:06:11;;;;;;;0.88;0.30;;;;;;;;;;5026037;28;20040;-78
2022/01/30 13:08:47;;;;;;;2.43;0.60;;;;;;;;;;5034375;28;20030;-77
2022/01/30 13:11:20;;;;;;;5.28;1.55;;;;;;;;;;5031522;28;20036;-78
2022/01/30 13:13:55;;;;;;;5.47;1.40;;;;;;;;;;5027109;28;20151;-75
2022/01/30 13:16:21;;;;;;;6.88;1.20;;;;;;;;;;5027893;28;20072;-78
2022/01/30 13:18:47;;;;;;;6.60;1.77;;;;;;;;;;5026805;28;20519;-77
2022/01/30 13:21:13;;;;;;;8.52;1.88;;;;;;;;;;5027131;28;20032;-77
2022/01/30 13:23:45;;;;;;;5.53;1.13;;;;;;;;;;5034273;28;20082;-77
2022/01/30 13:26:11;;;;;;;11.20;2.20;;;;;;;;;;5029933;28;20033;-77
2022/01/30 13:28:37;;;;;;;6.35;1.88;;;;;;;;;;5030860;28;20041;-77
2022/01/30 13:31:15;;;;;;;2.78;0.43;;;;;;;;;;5025925;28;20039;-77
2022/01/30 13:33:41;;;;;;;3.83;1.10;;;;;;;;;;5031836;28;20037;-78
2022/01/30 13:36:07;;;;;;;2.72;0.55;;;;;;;;;;5034341;28;20037;-76
2022/01/30 13:38:40;;;;;;;15.90;1.15;;;;;;;;;;5032071;28;20126;-77
2022/01/30 13:41:06;;;;;;;6.75;0.80;;;;;;;;;;5028869;28;20025;-78
2022/01/30 13:43:36;;;;;;;5.25;1.00;;;;;;;;;;5029043;28;20036;-78
2022/01/30 13:48:47;;;;;;;7.07;0.50;;;;;;;;;;5035080;28;20646;-78
2022/01/30 13:51:20;;;;;;;5.75;0.95;;;;;;;;;;5034294;28;20037;-77
2022/01/30 13:53:46;;;;;;;12.00;1.00;;;;;;;;;;5031237;28;20082;-77
2022/01/30 13:56:15;;;;;;;5.05;1.85;;;;;;;;;;5028276;28;20680;-77
2022/01/30 13:58:41;;;;;;;4.95;0.68;;;;;;;;;;5031635;28;20516;-78
2022/01/30 14:01:10;;;;;;;0.60;0.30;;;;;;;;;;5030197;28;20090;-78
2022/01/30 14:03:37;;;;;;;1.45;0.40;;;;;;;;;;5028901;28;20809;-77
2022/01/30 14:06:04;;;;;;;1.95;0.45;;;;;;;;;;5035057;28;20401;-78
2022/01/30 14:08:30;;;;;;;1.20;0.40;;;;;;;;;;5031343;28;20032;-78
2022/01/30 14:11:03;;;;;;;3.05;0.90;;;;;;;;;;5029746;28;20157;-77
2022/01/30 14:13:37;;;;;;;7.60;0.50;;;;;;;;;;5030525;28;20086;-77
2022/01/30 14:16:05;;;;;;;2.08;1.02;;;;;;;;;;5026201;28;20025;-78
2022/01/30 14:18:35;;;;;;;3.00;0.50;;;;;;;;;;5031112;28;20032;-78
2022/01/30 14:21:03;;;;;;;4.72;0.50;;;;;;;;;;5029279;28;20037;-78
2022/01/30 14:23:35;;;;;;;6.20;1.40;;;;;;;;;;5030561;28;20035;-77
2022/01/30 14:26:01;;;;;;;2.90;0.40;;;;;;;;;;5023196;28;20139;-77
2022/01/30 14:28:29;;;;;;;23.42;10.50;;;;;;;;;;5020519;28;20098;-77
2022/01/30 14:30:56;;;;;;;5.65;1.55;;;;;;;;;;5019797;28;20043;-78
2022/01/30 14:33:22;;;;;;;1.35;0.32;;;;;;;;;;5024643;28;20026;-77
2022/01/30 14:35:48;;;;;;;2.75;0.80;;;;;;;;;;5020749;28;20029;-78
2022/01/30 14:38:14;;;;;;;6.53;1.50;;;;;;;;;;5023760;28;20025;-78
2022/01/30 14:40:40;;;;;;;5.75;2.20;;;;;;;;;;5028085;28;20043;-77
2022/01/30 14:43:08;;;;;;;10.98;2.85;;;;;;;;;;5034079;28;20171;-80
2022/01/30 14:45:34;;;;;;;13.57;3.60;;;;;;;;;;5035941;28;20284;-78
2022/01/30 14:48:01;;;;;;;9.00;2.10;;;;;;;;;;5039984;28;20036;-78
2022/01/30 14:50:27;;;;;;;5.57;0.95;;;;;;;;;;5041589;28;22175;-78
2022/01/30 14:52:53;;;;;;;22.83;5.63;;;;;;;;;;5034762;28;20025;-79
2022/01/30 14:55:20;;;;;;;26.85;6.35;;;;;;;;;;5039471;28;20036;-78
2022/01/30 14:57:46;;;;;;;10.07;2.72;;;;;;;;;;5033807;28;20032;-78
2022/01/30 15:00:16;;;;;;;5.93;2.22;;;;;;;;;;5027474;28;20140;-77
2022/01/30 15:02:42;;;;;;;8.98;1.52;;;;;;;;;;5024382;28;20085;-77
2022/01/30 15:05:09;;;;;;;3.58;0.88;;;;;;;;;;5024649;28;20028;-77
2022/01/30 15:07:35;;;;;;;3.80;0.88;;;;;;;;;;5030977;28;20500;-78
2022/01/30 15:10:02;;;;;;;5.95;0.80;;;;;;;;;;5032305;28;21041;-76
2022/01/30 15:12:27;;;;;;;4.22;1.67;;;;;;;;;;5034252;28;20024;-78
2022/01/30 15:14:53;;;;;;;3.60;0.80;;;;;;;;;;5026299;28;20026;-77
2022/01/30 15:17:21;;;;;;;3.00;1.15;;;;;;;;;;5023851;28;20269;-77
2022/01/30 15:19:47;;;;;;;1.17;0.57;;;;;;;;;;5032240;28;20142;-77
2022/01/30 15:22:13;;;;;;;4.80;0.75;;;;;;;;;;5024476;28;20021;-77
2022/01/30 15:24:40;;;;;;;3.50;0.52;;;;;;;;;;5028932;28;20117;-77
2022/01/30 15:27:06;;;;;;;2.47;1.02;;;;;;;;;;5033727;28;20078;-77
2022/01/30 15:29:32;;;;;;;5.95;1.48;;;;;;;;;;5023573;28;20141;-77
2022/01/30 15:31:58;;;;;;;6.13;1.00;;;;;;;;;;5025208;28;20021;-78
2022/01/30 15:34:24;;;;;;;3.40;1.00;;;;;;;;;;5029950;28;20776;-78
2022/01/30 15:36:50;;;;;;;4.50;1.17;;;;;;;;;;5029887;28;20032;-78
2022/01/30 15:39:16;;;;;;;9.93;0.80;;;;;;;;;;5033062;28;20717;-77
2022/01/30 15:41:42;;;;;;;4.60;1.15;;;;;;;;;;5031110;28;20057;-78